sensor_id;sensor_type;location;lat;lon;timestamp;P1;durP1;ratioP1;P2;durP2;ratioP2
23714;SDS011;12036;50.858;4.472;2023-06-14T00:00:40;7.68;;;5.68;;
23714;SDS011;12036;50.858;4.472;2023-06-14T00:03:07;9.85;;;5.20;;
23714;SDS011;12036;50.858;4.472;2023-06-14T00:05:36;9.30;;;5.32;;
23714;SDS011;12036;50.858;4.472;2023-06-14T00:08:08;7.10;;;5.47;;
23714;SDS011;12036;50.858;4.472;2023-06-14T00:10:34;7.88;;;5.38;;
23714;SDS011;12036;50.858;4.472;2023-06-14T00:13:03;6.53;;;5.40;;
23714;SDS011;12036;50.858;4.472;2023-06-14T00:15:30;6.93;;;5.70;;
23714;SDS011;12036;50.858;4.472;2023-06-14T00:17:56;7.70;;;5.78;;
23714;SDS011;12036;50.858;4.472;2023-06-14T00:20:25;8.85;;;4.75;;
23714;SDS011;12036;50.858;4.472;2023-06-14T00:22:55;6.72;;;5.43;;
23714;SDS011;12036;50.858;4.472;2023-06-14T00:25:22;7.80;;;4.82;;
23714;SDS011;12036;50.858;4.472;2023-06-14T00:27:50;9.68;;;5.82;;
23714;SDS011;12036;50.858;4.472;2023-06-14T00:30:16;7.03;;;5.22;;
23714;SDS011;12036;50.858;4.472;2023-06-14T00:32:42;12.70;;;5.80;;
23714;SDS011;12036;50.858;4.472;2023-06-14T00:35:09;9.65;;;5.50;;
23714;SDS011;12036;50.858;4.472;2023-06-14T00:37:35;6.45;;;5.35;;
23714;SDS011;12036;50.858;4.472;2023-06-14T00:40:01;7.05;;;5.30;;
23714;SDS011;12036;50.858;4.472;2023-06-14T00:42:27;6.13;;;5.53;;
23714;SDS011;12036;50.858;4.472;2023-06-14T00:44:53;9.02;;;5.72;;
23714;SDS011;12036;50.858;4.472;2023-06-14T00:47:19;8.23;;;5.03;;
23714;SDS011;12036;50.858;4.472;2023-06-14T00:49:46;7.55;;;5.45;;
23714;SDS011;12036;50.858;4.472;2023-06-14T00:52:13;7.47;;;5.20;;
23714;SDS011;12036;50.858;4.472;2023-06-14T00:54:39;10.00;;;5.95;;
23714;SDS011;12036;50.858;4.472;2023-06-14T00:57:06;7.38;;;5.85;;
23714;SDS011;12036;50.858;4.472;2023-06-14T00:59:32;7.45;;;5.82;;
23714;SDS011;12036;50.858;4.472;2023-06-14T01:02:00;6.85;;;5.60;;
23714;SDS011;12036;50.858;4.472;2023-06-14T01:04:26;8.32;;;5.40;;
23714;SDS011;12036;50.858;4.472;2023-06-14T01:07:00;8.93;;;5.75;;
23714;SDS011;12036;50.858;4.472;2023-06-14T01:15:12;6.18;;;5.05;;
23714;SDS011;12036;50.858;4.472;2023-06-14T01:17:38;6.90;;;5.53;;
23714;SDS011;12036;50.858;4.472;2023-06-14T01:20:08;11.65;;;5.80;;
23714;SDS011;12036;50.858;4.472;2023-06-14T01:22:48;7.13;;;5.55;;
23714;SDS011;12036;50.858;4.472;2023-06-14T01:25:21;9.00;;;6.25;;
23714;SDS011;12036;50.858;4.472;2023-06-14T01:30:24;6.82;;;5.47;;
23714;SDS011;12036;50.858;4.472;2023-06-14T01:32:50;6.13;;;5.50;;
23714;SDS011;12036;50.858;4.472;2023-06-14T01:35:17;8.10;;;5.68;;
23714;SDS011;12036;50.858;4.472;2023-06-14T01:37:43;6.60;;;5.82;;
23714;SDS011;12036;50.858;4.472;2023-06-14T01:40:11;8.68;;;5.47;;
23714;SDS011;12036;50.858;4.472;2023-06-14T01:42:39;6.32;;;5.65;;
23714;SDS011;12036;50.858;4.472;2023-06-14T01:45:06;8.07;;;6.07;;
23714;SDS011;12036;50.858;4.472;2023-06-14T01:47:33;7.30;;;6.07;;
23714;SDS011;12036;50.858;4.472;2023-06-14T01:50:00;8.32;;;5.97;;
23714;SDS011;12036;50.858;4.472;2023-06-14T01:52:27;6.90;;;5.55;;
23714;SDS011;12036;50.858;4.472;2023-06-14T01:54:53;6.55;;;5.63;;
23714;SDS011;12036;50.858;4.472;2023-06-14T01:57:19;10.40;;;6.32;;
23714;SDS011;12036;50.858;4.472;2023-06-14T01:59:45;12.95;;;6.03;;
23714;SDS011;12036;50.858;4.472;2023-06-14T02:02:13;7.03;;;5.85;;
23714;SDS011;12036;50.858;4.472;2023-06-14T02:04:40;7.53;;;5.53;;
23714;SDS011;12036;50.858;4.472;2023-06-14T02:07:06;7.13;;;6.43;;
23714;SDS011;12036;50.858;4.472;2023-06-14T02:09:31;7.78;;;5.70;;
23714;SDS011;12036;50.858;4.472;2023-06-14T02:11:57;6.93;;;6.22;;
23714;SDS011;12036;50.858;4.472;2023-06-14T02:14:23;7.22;;;6.10;;
23714;SDS011;12036;50.858;4.472;2023-06-14T02:16:49;8.02;;;5.75;;
23714;SDS011;12036;50.858;4.472;2023-06-14T02:19:15;8.52;;;5.60;;
23714;SDS011;12036;50.858;4.472;2023-06-14T02:21:41;8.65;;;5.70;;
23714;SDS011;12036;50.858;4.472;2023-06-14T02:24:07;9.32;;;6.35;;
23714;SDS011;12036;50.858;4.472;2023-06-14T02:26:33;10.02;;;6.15;;
23714;SDS011;12036;50.858;4.472;2023-06-14T02:28:59;10.00;;;6.40;;
23714;SDS011;12036;50.858;4.472;2023-06-14T02:31:25;7.97;;;6.07;;
23714;SDS011;12036;50.858;4.472;2023-06-14T02:33:50;9.27;;;6.63;;
23714;SDS011;12036;50.858;4.472;2023-06-14T02:36:16;6.88;;;6.00;;
23714;SDS011;12036;50.858;4.472;2023-06-14T02:38:42;9.88;;;6.30;;
23714;SDS011;12036;50.858;4.472;2023-06-14T02:41:07;8.30;;;6.28;;
23714;SDS011;12036;50.858;4.472;2023-06-14T02:43:33;7.40;;;6.13;;
23714;SDS011;12036;50.858;4.472;2023-06-14T02:45:59;10.15;;;6.65;;
23714;SDS011;12036;50.858;4.472;2023-06-14T02:48:24;9.80;;;6.45;;
23714;SDS011;12036;50.858;4.472;2023-06-14T02:50:50;8.73;;;7.32;;
23714;SDS011;12036;50.858;4.472;2023-06-14T02:53:16;10.85;;;7.20;;
23714;SDS011;12036;50.858;4.472;2023-06-14T02:55:42;9.10;;;6.78;;
23714;SDS011;12036;50.858;4.472;2023-06-14T02:58:08;10.95;;;7.00;;
23714;SDS011;12036;50.858;4.472;2023-06-14T03:00:33;8.80;;;6.85;;
23714;SDS011;12036;50.858;4.472;2023-06-14T03:03:00;11.82;;;7.80;;
23714;SDS011;12036;50.858;4.472;2023-06-14T03:05:26;10.98;;;7.35;;
23714;SDS011;12036;50.858;4.472;2023-06-14T03:07:53;9.52;;;7.35;;
23714;SDS011;12036;50.858;4.472;2023-06-14T03:10:19;9.43;;;7.32;;
23714;SDS011;12036;50.858;4.472;2023-06-14T03:12:45;10.07;;;7.60;;
23714;SDS011;12036;50.858;4.472;2023-06-14T03:15:12;12.63;;;7.10;;
23714;SDS011;12036;50.858;4.472;2023-06-14T03:17:42;9.88;;;6.80;;
23714;SDS011;12036;50.858;4.472;2023-06-14T03:20:10;12.48;;;7.30;;
23714;SDS011;12036;50.858;4.472;2023-06-14T03:22:36;8.18;;;6.60;;
23714;SDS011;12036;50.858;4.472;2023-06-14T03:25:02;7.30;;;6.50;;
23714;SDS011;12036;50.858;4.472;2023-06-14T03:27:29;10.70;;;6.72;;
23714;SDS011;12036;50.858;4.472;2023-06-14T03:29:54;9.68;;;6.65;;
23714;SDS011;12036;50.858;4.472;2023-06-14T03:32:20;9.85;;;6.90;;
23714;SDS011;12036;50.858;4.472;2023-06-14T03:34:46;11.70;;;6.93;;
23714;SDS011;12036;50.858;4.472;2023-06-14T03:37:11;11.55;;;6.82;;
23714;SDS011;12036;50.858;4.472;2023-06-14T03:39:37;9.75;;;7.05;;
23714;SDS011;12036;50.858;4.472;2023-06-14T03:42:03;10.48;;;6.93;;
23714;SDS011;12036;50.858;4.472;2023-06-14T03:44:29;9.93;;;7.15;;
23714;SDS011;12036;50.858;4.472;2023-06-14T03:46:55;8.60;;;6.50;;
23714;SDS011;12036;50.858;4.472;2023-06-14T03:49:20;10.70;;;6.85;;
23714;SDS011;12036;50.858;4.472;2023-06-14T03:51:46;10.40;;;6.43;;
23714;SDS011;12036;50.858;4.472;2023-06-14T03:54:16;11.23;;;7.35;;
23714;SDS011;12036;50.858;4.472;2023-06-14T03:56:41;11.02;;;7.47;;
23714;SDS011;12036;50.858;4.472;2023-06-14T03:59:07;10.15;;;7.63;;
23714;SDS011;12036;50.858;4.472;2023-06-14T04:01:32;10.52;;;7.65;;
23714;SDS011;12036;50.858;4.472;2023-06-14T04:03:58;10.93;;;6.97;;
23714;SDS011;12036;50.858;4.472;2023-06-14T04:06:24;8.68;;;7.13;;
23714;SDS011;12036;50.858;4.472;2023-06-14T04:08:57;10.88;;;7.60;;
23714;SDS011;12036;50.858;4.472;2023-06-14T04:11:28;8.40;;;7.43;;
23714;SDS011;12036;50.858;4.472;2023-06-14T04:13:54;8.18;;;7.38;;
23714;SDS011;12036;50.858;4.472;2023-06-14T04:16:21;13.48;;;7.53;;
23714;SDS011;12036;50.858;4.472;2023-06-14T04:18:47;11.80;;;7.53;;
23714;SDS011;12036;50.858;4.472;2023-06-14T04:21:16;9.82;;;7.15;;
23714;SDS011;12036;50.858;4.472;2023-06-14T04:23:42;9.27;;;7.00;;
23714;SDS011;12036;50.858;4.472;2023-06-14T04:26:08;12.25;;;7.57;;
23714;SDS011;12036;50.858;4.472;2023-06-14T04:28:35;12.48;;;6.85;;
23714;SDS011;12036;50.858;4.472;2023-06-14T04:31:05;8.77;;;7.53;;
23714;SDS011;12036;50.858;4.472;2023-06-14T04:33:33;10.90;;;6.70;;
23714;SDS011;12036;50.858;4.472;2023-06-14T04:36:08;10.73;;;7.40;;
23714;SDS011;12036;50.858;4.472;2023-06-14T04:38:34;14.10;;;7.15;;
23714;SDS011;12036;50.858;4.472;2023-06-14T04:41:00;8.93;;;6.88;;
23714;SDS011;12036;50.858;4.472;2023-06-14T04:43:26;11.07;;;7.55;;
23714;SDS011;12036;50.858;4.472;2023-06-14T04:45:52;12.10;;;7.47;;
23714;SDS011;12036;50.858;4.472;2023-06-14T04:48:21;9.80;;;7.28;;
23714;SDS011;12036;50.858;4.472;2023-06-14T04:50:47;11.85;;;6.68;;
23714;SDS011;12036;50.858;4.472;2023-06-14T04:53:13;15.95;;;7.50;;
23714;SDS011;12036;50.858;4.472;2023-06-14T04:55:39;11.43;;;7.30;;
23714;SDS011;12036;50.858;4.472;2023-06-14T04:58:04;10.90;;;7.13;;
23714;SDS011;12036;50.858;4.472;2023-06-14T05:00:30;9.65;;;6.78;;
23714;SDS011;12036;50.858;4.472;2023-06-14T05:02:56;8.57;;;6.38;;
23714;SDS011;12036;50.858;4.472;2023-06-14T05:05:22;12.52;;;7.15;;
23714;SDS011;12036;50.858;4.472;2023-06-14T05:07:49;8.65;;;6.97;;
23714;SDS011;12036;50.858;4.472;2023-06-14T05:10:14;8.88;;;6.75;;
23714;SDS011;12036;50.858;4.472;2023-06-14T05:12:40;11.15;;;6.80;;
23714;SDS011;12036;50.858;4.472;2023-06-14T05:15:08;9.70;;;6.88;;
23714;SDS011;12036;50.858;4.472;2023-06-14T05:17:35;15.43;;;7.03;;
23714;SDS011;12036;50.858;4.472;2023-06-14T05:20:01;9.50;;;7.22;;
23714;SDS011;12036;50.858;4.472;2023-06-14T05:22:27;11.07;;;6.68;;
23714;SDS011;12036;50.858;4.472;2023-06-14T05:24:53;8.60;;;6.70;;
23714;SDS011;12036;50.858;4.472;2023-06-14T05:27:18;10.82;;;6.60;;
23714;SDS011;12036;50.858;4.472;2023-06-14T05:29:44;11.70;;;7.15;;
23714;SDS011;12036;50.858;4.472;2023-06-14T05:32:10;10.68;;;6.60;;
23714;SDS011;12036;50.858;4.472;2023-06-14T05:34:35;11.40;;;6.65;;
23714;SDS011;12036;50.858;4.472;2023-06-14T05:37:01;9.07;;;7.28;;
23714;SDS011;12036;50.858;4.472;2023-06-14T05:39:28;12.45;;;6.55;;
23714;SDS011;12036;50.858;4.472;2023-06-14T05:41:55;14.55;;;6.72;;
23714;SDS011;12036;50.858;4.472;2023-06-14T05:44:20;6.95;;;6.22;;
23714;SDS011;12036;50.858;4.472;2023-06-14T05:46:46;9.75;;;6.43;;
23714;SDS011;12036;50.858;4.472;2023-06-14T05:49:11;12.60;;;7.55;;
23714;SDS011;12036;50.858;4.472;2023-06-14T05:51:37;11.65;;;6.65;;
23714;SDS011;12036;50.858;4.472;2023-06-14T05:54:03;13.02;;;7.22;;
23714;SDS011;12036;50.858;4.472;2023-06-14T05:56:28;9.35;;;6.85;;
23714;SDS011;12036;50.858;4.472;2023-06-14T05:58:54;9.98;;;6.97;;
23714;SDS011;12036;50.858;4.472;2023-06-14T06:01:20;12.98;;;6.63;;
23714;SDS011;12036;50.858;4.472;2023-06-14T06:03:46;9.73;;;7.18;;
23714;SDS011;12036;50.858;4.472;2023-06-14T06:06:12;15.00;;;6.88;;
23714;SDS011;12036;50.858;4.472;2023-06-14T06:08:39;10.27;;;7.20;;
23714;SDS011;12036;50.858;4.472;2023-06-14T06:11:05;8.30;;;6.40;;
23714;SDS011;12036;50.858;4.472;2023-06-14T06:13:31;7.53;;;6.72;;
23714;SDS011;12036;50.858;4.472;2023-06-14T06:15:57;9.52;;;7.40;;
23714;SDS011;12036;50.858;4.472;2023-06-14T06:18:22;10.43;;;7.10;;
23714;SDS011;12036;50.858;4.472;2023-06-14T06:20:48;10.30;;;6.80;;
23714;SDS011;12036;50.858;4.472;2023-06-14T06:23:13;11.25;;;6.60;;
23714;SDS011;12036;50.858;4.472;2023-06-14T06:25:39;7.65;;;6.63;;
23714;SDS011;12036;50.858;4.472;2023-06-14T06:28:05;9.13;;;5.72;;
23714;SDS011;12036;50.858;4.472;2023-06-14T06:30:30;8.05;;;6.20;;
23714;SDS011;12036;50.858;4.472;2023-06-14T06:32:56;11.05;;;6.78;;
23714;SDS011;12036;50.858;4.472;2023-06-14T06:35:22;9.65;;;5.82;;
23714;SDS011;12036;50.858;4.472;2023-06-14T06:37:48;8.38;;;5.93;;
23714;SDS011;12036;50.858;4.472;2023-06-14T06:40:13;9.32;;;6.15;;
23714;SDS011;12036;50.858;4.472;2023-06-14T06:42:39;9.02;;;6.05;;
23714;SDS011;12036;50.858;4.472;2023-06-14T06:45:05;8.45;;;6.07;;
23714;SDS011;12036;50.858;4.472;2023-06-14T06:47:31;10.57;;;6.18;;
23714;SDS011;12036;50.858;4.472;2023-06-14T06:49:57;7.45;;;5.75;;
23714;SDS011;12036;50.858;4.472;2023-06-14T06:52:22;10.45;;;5.85;;
23714;SDS011;12036;50.858;4.472;2023-06-14T06:54:48;6.63;;;5.65;;
23714;SDS011;12036;50.858;4.472;2023-06-14T06:57:14;8.23;;;5.55;;
23714;SDS011;12036;50.858;4.472;2023-06-14T06:59:39;6.55;;;5.90;;
23714;SDS011;12036;50.858;4.472;2023-06-14T07:02:05;8.73;;;5.72;;
23714;SDS011;12036;50.858;4.472;2023-06-14T07:04:31;10.07;;;5.60;;
23714;SDS011;12036;50.858;4.472;2023-06-14T07:06:57;10.23;;;6.07;;
23714;SDS011;12036;50.858;4.472;2023-06-14T07:09:22;9.75;;;5.70;;
23714;SDS011;12036;50.858;4.472;2023-06-14T07:11:49;7.95;;;5.70;;
23714;SDS011;12036;50.858;4.472;2023-06-14T07:14:15;7.38;;;5.70;;
23714;SDS011;12036;50.858;4.472;2023-06-14T07:16:41;10.73;;;6.05;;
23714;SDS011;12036;50.858;4.472;2023-06-14T07:19:07;13.48;;;6.00;;
23714;SDS011;12036;50.858;4.472;2023-06-14T07:21:34;10.55;;;5.90;;
23714;SDS011;12036;50.858;4.472;2023-06-14T07:24:02;6.80;;;5.38;;
23714;SDS011;12036;50.858;4.472;2023-06-14T07:26:28;10.07;;;6.22;;
23714;SDS011;12036;50.858;4.472;2023-06-14T07:28:54;9.65;;;5.75;;
23714;SDS011;12036;50.858;4.472;2023-06-14T07:31:20;9.48;;;6.13;;
23714;SDS011;12036;50.858;4.472;2023-06-14T07:33:46;10.88;;;6.50;;
23714;SDS011;12036;50.858;4.472;2023-06-14T07:36:11;7.80;;;5.90;;
23714;SDS011;12036;50.858;4.472;2023-06-14T07:38:37;7.55;;;5.85;;
23714;SDS011;12036;50.858;4.472;2023-06-14T07:41:03;10.00;;;5.80;;
23714;SDS011;12036;50.858;4.472;2023-06-14T07:43:28;8.07;;;5.97;;
23714;SDS011;12036;50.858;4.472;2023-06-14T07:45:54;9.57;;;6.63;;
23714;SDS011;12036;50.858;4.472;2023-06-14T07:48:21;11.40;;;6.50;;
23714;SDS011;12036;50.858;4.472;2023-06-14T07:50:47;12.10;;;6.30;;
23714;SDS011;12036;50.858;4.472;2023-06-14T07:53:13;10.93;;;5.85;;
23714;SDS011;12036;50.858;4.472;2023-06-14T07:55:38;11.05;;;5.93;;
23714;SDS011;12036;50.858;4.472;2023-06-14T07:58:05;11.98;;;6.30;;
23714;SDS011;12036;50.858;4.472;2023-06-14T08:00:31;12.95;;;6.22;;
23714;SDS011;12036;50.858;4.472;2023-06-14T08:02:57;9.23;;;5.65;;
23714;SDS011;12036;50.858;4.472;2023-06-14T08:05:24;10.18;;;5.80;;
23714;SDS011;12036;50.858;4.472;2023-06-14T08:07:50;10.25;;;5.90;;
23714;SDS011;12036;50.858;4.472;2023-06-14T08:10:16;9.93;;;5.82;;
23714;SDS011;12036;50.858;4.472;2023-06-14T08:12:42;8.95;;;5.85;;
23714;SDS011;12036;50.858;4.472;2023-06-14T08:15:08;10.30;;;6.15;;
23714;SDS011;12036;50.858;4.472;2023-06-14T08:17:34;7.95;;;5.80;;
23714;SDS011;12036;50.858;4.472;2023-06-14T08:20:00;13.25;;;6.45;;
23714;SDS011;12036;50.858;4.472;2023-06-14T08:22:26;10.60;;;6.10;;
23714;SDS011;12036;50.858;4.472;2023-06-14T08:24:53;14.93;;;5.55;;
23714;SDS011;12036;50.858;4.472;2023-06-14T08:27:19;9.82;;;6.20;;
23714;SDS011;12036;50.858;4.472;2023-06-14T08:29:45;8.65;;;6.00;;
23714;SDS011;12036;50.858;4.472;2023-06-14T08:32:11;10.63;;;6.60;;
23714;SDS011;12036;50.858;4.472;2023-06-14T08:34:37;10.13;;;6.20;;
23714;SDS011;12036;50.858;4.472;2023-06-14T08:37:03;10.00;;;6.10;;
23714;SDS011;12036;50.858;4.472;2023-06-14T08:39:30;10.13;;;5.60;;
23714;SDS011;12036;50.858;4.472;2023-06-14T08:41:56;8.70;;;5.57;;
23714;SDS011;12036;50.858;4.472;2023-06-14T08:44:23;8.52;;;6.13;;
23714;SDS011;12036;50.858;4.472;2023-06-14T08:46:49;8.52;;;5.75;;
23714;SDS011;12036;50.858;4.472;2023-06-14T08:49:17;6.50;;;5.18;;
23714;SDS011;12036;50.858;4.472;2023-06-14T08:51:43;11.43;;;5.70;;
23714;SDS011;12036;50.858;4.472;2023-06-14T08:54:09;9.00;;;5.72;;
23714;SDS011;12036;50.858;4.472;2023-06-14T08:56:37;9.02;;;5.43;;
23714;SDS011;12036;50.858;4.472;2023-06-14T08:59:03;15.88;;;5.75;;
23714;SDS011;12036;50.858;4.472;2023-06-14T09:01:34;11.50;;;5.93;;
23714;SDS011;12036;50.858;4.472;2023-06-14T09:04:01;8.73;;;5.60;;
23714;SDS011;12036;50.858;4.472;2023-06-14T09:06:27;9.75;;;5.72;;
23714;SDS011;12036;50.858;4.472;2023-06-14T09:08:54;8.85;;;5.90;;
23714;SDS011;12036;50.858;4.472;2023-06-14T09:11:23;9.90;;;6.13;;
23714;SDS011;12036;50.858;4.472;2023-06-14T09:13:49;7.95;;;5.70;;
23714;SDS011;12036;50.858;4.472;2023-06-14T09:16:15;16.33;;;6.00;;
23714;SDS011;12036;50.858;4.472;2023-06-14T09:18:44;8.20;;;5.72;;
23714;SDS011;12036;50.858;4.472;2023-06-14T09:23:46;8.45;;;5.35;;
23714;SDS011;12036;50.858;4.472;2023-06-14T09:26:18;13.63;;;5.05;;
23714;SDS011;12036;50.858;4.472;2023-06-14T09:28:45;9.05;;;4.93;;
23714;SDS011;12036;50.858;4.472;2023-06-14T09:31:19;8.90;;;5.22;;
23714;SDS011;12036;50.858;4.472;2023-06-14T09:33:46;6.93;;;5.93;;
23714;SDS011;12036;50.858;4.472;2023-06-14T09:36:16;9.60;;;5.22;;
23714;SDS011;12036;50.858;4.472;2023-06-14T09:38:51;6.30;;;4.90;;
23714;SDS011;12036;50.858;4.472;2023-06-14T09:41:40;7.80;;;5.38;;
23714;SDS011;12036;50.858;4.472;2023-06-14T09:44:08;8.80;;;4.80;;
23714;SDS011;12036;50.858;4.472;2023-06-14T09:46:34;6.97;;;4.90;;
23714;SDS011;12036;50.858;4.472;2023-06-14T09:49:01;7.05;;;5.25;;
23714;SDS011;12036;50.858;4.472;2023-06-14T09:51:28;10.18;;;5.07;;
23714;SDS011;12036;50.858;4.472;2023-06-14T09:54:00;8.32;;;5.18;;
23714;SDS011;12036;50.858;4.472;2023-06-14T09:56:31;8.85;;;4.65;;
23714;SDS011;12036;50.858;4.472;2023-06-14T09:58:59;10.75;;;4.82;;
23714;SDS011;12036;50.858;4.472;2023-06-14T10:01:29;6.35;;;5.03;;
23714;SDS011;12036;50.858;4.472;2023-06-14T10:04:01;5.80;;;5.10;;
23714;SDS011;12036;50.858;4.472;2023-06-14T10:06:29;7.57;;;5.10;;
23714;SDS011;12036;50.858;4.472;2023-06-14T10:08:59;10.27;;;5.05;;
23714;SDS011;12036;50.858;4.472;2023-06-14T10:11:26;7.57;;;5.10;;
23714;SDS011;12036;50.858;4.472;2023-06-14T10:13:52;6.80;;;4.82;;
23714;SDS011;12036;50.858;4.472;2023-06-14T10:16:21;10.48;;;4.68;;
23714;SDS011;12036;50.858;4.472;2023-06-14T10:19:11;5.43;;;4.90;;
23714;SDS011;12036;50.858;4.472;2023-06-14T10:24:17;11.63;;;5.10;;
23714;SDS011;12036;50.858;4.472;2023-06-14T10:26:53;9.75;;;4.60;;
23714;SDS011;12036;50.858;4.472;2023-06-14T10:29:22;6.00;;;4.53;;
23714;SDS011;12036;50.858;4.472;2023-06-14T10:31:48;7.07;;;4.32;;
23714;SDS011;12036;50.858;4.472;2023-06-14T10:34:21;7.90;;;4.13;;
23714;SDS011;12036;50.858;4.472;2023-06-14T10:37:11;7.75;;;4.07;;
23714;SDS011;12036;50.858;4.472;2023-06-14T10:39:42;7.70;;;4.07;;
23714;SDS011;12036;50.858;4.472;2023-06-14T10:42:11;4.70;;;3.72;;
23714;SDS011;12036;50.858;4.472;2023-06-14T10:47:06;7.65;;;4.30;;
23714;SDS011;12036;50.858;4.472;2023-06-14T10:52:23;6.03;;;3.97;;
23714;SDS011;12036;50.858;4.472;2023-06-14T10:54:59;7.70;;;3.90;;
23714;SDS011;12036;50.858;4.472;2023-06-14T10:57:54;8.80;;;3.63;;
23714;SDS011;12036;50.858;4.472;2023-06-14T11:00:24;4.85;;;3.88;;
23714;SDS011;12036;50.858;4.472;2023-06-14T11:05:43;12.15;;;3.60;;
23714;SDS011;12036;50.858;4.472;2023-06-14T11:11:06;7.32;;;3.40;;
23714;SDS011;12036;50.858;4.472;2023-06-14T11:13:33;5.20;;;3.40;;
23714;SDS011;12036;50.858;4.472;2023-06-14T11:16:01;6.68;;;3.65;;
23714;SDS011;12036;50.858;4.472;2023-06-14T11:18:28;7.03;;;3.35;;
23714;SDS011;12036;50.858;4.472;2023-06-14T11:20:54;5.00;;;3.50;;
23714;SDS011;12036;50.858;4.472;2023-06-14T11:23:21;5.15;;;3.00;;
23714;SDS011;12036;50.858;4.472;2023-06-14T11:25:51;6.75;;;3.78;;
23714;SDS011;12036;50.858;4.472;2023-06-14T11:28:17;5.20;;;3.72;;
23714;SDS011;12036;50.858;4.472;2023-06-14T11:30:47;4.50;;;3.38;;
23714;SDS011;12036;50.858;4.472;2023-06-14T11:33:16;9.07;;;3.65;;
23714;SDS011;12036;50.858;4.472;2023-06-14T11:38:10;6.63;;;3.28;;
23714;SDS011;12036;50.858;4.472;2023-06-14T11:40:37;8.75;;;3.50;;
23714;SDS011;12036;50.858;4.472;2023-06-14T11:43:03;4.53;;;3.63;;
23714;SDS011;12036;50.858;4.472;2023-06-14T11:45:30;9.77;;;3.72;;
23714;SDS011;12036;50.858;4.472;2023-06-14T11:47:56;5.47;;;3.50;;
23714;SDS011;12036;50.858;4.472;2023-06-14T11:50:23;5.03;;;3.33;;
23714;SDS011;12036;50.858;4.472;2023-06-14T11:52:56;6.80;;;3.70;;
23714;SDS011;12036;50.858;4.472;2023-06-14T11:55:32;10.00;;;3.80;;
23714;SDS011;12036;50.858;4.472;2023-06-14T11:58:02;4.60;;;3.57;;
23714;SDS011;12036;50.858;4.472;2023-06-14T12:00:28;10.57;;;3.95;;
23714;SDS011;12036;50.858;4.472;2023-06-14T12:02:54;9.55;;;3.75;;
23714;SDS011;12036;50.858;4.472;2023-06-14T12:05:21;4.78;;;3.33;;
23714;SDS011;12036;50.858;4.472;2023-06-14T12:07:47;8.00;;;3.45;;
23714;SDS011;12036;50.858;4.472;2023-06-14T12:10:13;9.40;;;3.22;;
23714;SDS011;12036;50.858;4.472;2023-06-14T12:12:40;8.90;;;3.63;;
23714;SDS011;12036;50.858;4.472;2023-06-14T12:15:07;5.40;;;3.50;;
23714;SDS011;12036;50.858;4.472;2023-06-14T12:17:36;6.90;;;3.70;;
23714;SDS011;12036;50.858;4.472;2023-06-14T12:20:12;5.30;;;3.63;;
23714;SDS011;12036;50.858;4.472;2023-06-14T12:22:50;10.13;;;3.37;;
23714;SDS011;12036;50.858;4.472;2023-06-14T12:25:29;6.35;;;3.38;;
23714;SDS011;12036;50.858;4.472;2023-06-14T12:28:03;7.10;;;2.95;;
23714;SDS011;12036;50.858;4.472;2023-06-14T12:30:31;8.85;;;3.72;;
23714;SDS011;12036;50.858;4.472;2023-06-14T12:32:56;7.55;;;3.42;;
23714;SDS011;12036;50.858;4.472;2023-06-14T12:35:22;6.82;;;3.35;;
23714;SDS011;12036;50.858;4.472;2023-06-14T12:37:48;6.32;;;3.00;;
23714;SDS011;12036;50.858;4.472;2023-06-14T12:40:13;5.90;;;3.33;;
23714;SDS011;12036;50.858;4.472;2023-06-14T12:42:40;8.10;;;2.97;;
23714;SDS011;12036;50.858;4.472;2023-06-14T12:45:06;10.05;;;3.35;;
23714;SDS011;12036;50.858;4.472;2023-06-14T12:47:32;4.95;;;3.28;;
23714;SDS011;12036;50.858;4.472;2023-06-14T12:49:58;5.00;;;3.63;;
23714;SDS011;12036;50.858;4.472;2023-06-14T12:52:23;7.28;;;3.08;;
23714;SDS011;12036;50.858;4.472;2023-06-14T12:54:49;5.82;;;3.42;;
23714;SDS011;12036;50.858;4.472;2023-06-14T12:57:15;4.93;;;2.78;;
23714;SDS011;12036;50.858;4.472;2023-06-14T12:59:41;11.00;;;2.90;;
23714;SDS011;12036;50.858;4.472;2023-06-14T13:02:16;6.82;;;3.25;;
23714;SDS011;12036;50.858;4.472;2023-06-14T13:04:43;5.47;;;2.90;;
23714;SDS011;12036;50.858;4.472;2023-06-14T13:07:09;4.05;;;2.97;;
23714;SDS011;12036;50.858;4.472;2023-06-14T13:09:36;5.72;;;3.13;;
23714;SDS011;12036;50.858;4.472;2023-06-14T13:12:02;19.65;;;3.33;;
23714;SDS011;12036;50.858;4.472;2023-06-14T13:14:28;5.57;;;2.70;;
23714;SDS011;12036;50.858;4.472;2023-06-14T13:16:53;5.32;;;2.78;;
23714;SDS011;12036;50.858;4.472;2023-06-14T13:19:20;6.75;;;2.85;;
23714;SDS011;12036;50.858;4.472;2023-06-14T13:21:46;6.97;;;2.53;;
23714;SDS011;12036;50.858;4.472;2023-06-14T13:24:12;4.90;;;2.53;;
23714;SDS011;12036;50.858;4.472;2023-06-14T13:26:38;7.70;;;3.05;;
23714;SDS011;12036;50.858;4.472;2023-06-14T13:29:03;7.93;;;3.17;;
23714;SDS011;12036;50.858;4.472;2023-06-14T13:31:29;6.72;;;2.72;;
23714;SDS011;12036;50.858;4.472;2023-06-14T13:33:55;3.70;;;2.20;;
23714;SDS011;12036;50.858;4.472;2023-06-14T13:36:21;5.50;;;2.70;;
23714;SDS011;12036;50.858;4.472;2023-06-14T13:38:46;7.07;;;2.70;;
23714;SDS011;12036;50.858;4.472;2023-06-14T13:41:12;7.82;;;2.72;;
23714;SDS011;12036;50.858;4.472;2023-06-14T13:43:38;5.32;;;2.13;;
23714;SDS011;12036;50.858;4.472;2023-06-14T13:46:03;6.90;;;2.10;;
23714;SDS011;12036;50.858;4.472;2023-06-14T13:48:29;5.35;;;2.20;;
23714;SDS011;12036;50.858;4.472;2023-06-14T13:50:55;4.93;;;2.00;;
23714;SDS011;12036;50.858;4.472;2023-06-14T13:53:22;6.15;;;1.98;;
23714;SDS011;12036;50.858;4.472;2023-06-14T13:55:47;7.68;;;1.90;;
23714;SDS011;12036;50.858;4.472;2023-06-14T13:58:13;4.68;;;1.75;;
23714;SDS011;12036;50.858;4.472;2023-06-14T14:00:40;3.70;;;2.00;;
23714;SDS011;12036;50.858;4.472;2023-06-14T14:03:06;3.17;;;1.80;;
23714;SDS011;12036;50.858;4.472;2023-06-14T14:05:31;7.22;;;2.13;;
23714;SDS011;12036;50.858;4.472;2023-06-14T14:07:57;3.45;;;1.77;;
23714;SDS011;12036;50.858;4.472;2023-06-14T14:10:24;4.30;;;2.00;;
23714;SDS011;12036;50.858;4.472;2023-06-14T14:12:50;3.80;;;2.00;;
23714;SDS011;12036;50.858;4.472;2023-06-14T14:15:16;4.93;;;1.88;;
23714;SDS011;12036;50.858;4.472;2023-06-14T14:17:42;6.45;;;2.00;;
23714;SDS011;12036;50.858;4.472;2023-06-14T14:20:08;3.83;;;1.40;;
23714;SDS011;12036;50.858;4.472;2023-06-14T14:22:34;5.55;;;1.58;;
23714;SDS011;12036;50.858;4.472;2023-06-14T14:25:00;4.25;;;1.30;;
23714;SDS011;12036;50.858;4.472;2023-06-14T14:27:25;2.75;;;1.60;;
23714;SDS011;12036;50.858;4.472;2023-06-14T14:29:51;3.63;;;1.40;;
23714;SDS011;12036;50.858;4.472;2023-06-14T14:32:17;2.15;;;1.30;;
23714;SDS011;12036;50.858;4.472;2023-06-14T14:34:42;3.05;;;1.33;;
23714;SDS011;12036;50.858;4.472;2023-06-14T14:37:08;2.20;;;1.20;;
23714;SDS011;12036;50.858;4.472;2023-06-14T14:39:33;3.47;;;1.50;;
23714;SDS011;12036;50.858;4.472;2023-06-14T14:41:59;2.08;;;1.50;;
23714;SDS011;12036;50.858;4.472;2023-06-14T14:44:25;2.42;;;1.40;;
23714;SDS011;12036;50.858;4.472;2023-06-14T14:46:50;2.28;;;1.50;;
23714;SDS011;12036;50.858;4.472;2023-06-14T14:49:16;2.85;;;1.42;;
23714;SDS011;12036;50.858;4.472;2023-06-14T14:51:42;4.43;;;1.55;;
23714;SDS011;12036;50.858;4.472;2023-06-14T14:54:07;3.92;;;1.48;;
23714;SDS011;12036;50.858;4.472;2023-06-14T14:56:33;2.17;;;1.33;;
23714;SDS011;12036;50.858;4.472;2023-06-14T14:59:00;6.03;;;1.67;;
23714;SDS011;12036;50.858;4.472;2023-06-14T15:01:26;4.38;;;1.40;;
23714;SDS011;12036;50.858;4.472;2023-06-14T15:03:51;7.60;;;1.60;;
23714;SDS011;12036;50.858;4.472;2023-06-14T15:06:17;5.22;;;1.70;;
23714;SDS011;12036;50.858;4.472;2023-06-14T15:08:43;3.25;;;1.20;;